Time;durP1;ratioP1;P1;durP2;ratioP2;P2;SDS_P1;SDS_P2;PMS_P1;PMS_P2;Temp;Humidity;BMP_temperature;BMP_pressure;BME280_temperature;BME280_humidity;BME280_pressure;Samples;Min_cycle;Max_cycle;Signal;HPM_P1;HPM_P2
2021/12/24 16:17:19;;;;;;;20.30;6.00;;;;;;;-142.75;100.00;76989.59;5080530;28;20360;-68
2021/12/24 16:19:44;;;;;;;22.52;6.40;;;;;;;-142.75;100.00;76983.69;5078810;28;20088;-68
2021/12/24 16:22:10;;;;;;;21.13;6.90;;;;;;;-142.75;100.00;76993.53;5081510;28;20028;-68
2021/12/24 16:24:35;;;;;;;13.07;6.18;;;;;;;-142.75;100.00;77007.31;5085634;28;20401;-68
2021/12/24 16:27:01;;;;;;;14.50;6.95;;;;;;;-142.75;100.00;77011.25;5064496;28;20017;-69
2021/12/24 16:29:48;;;;;;;22.48;7.20;;;;;;;-142.75;100.00;77003.38;5065809;28;20063;-68
2021/12/24 16:32:14;;;;;;;19.02;7.20;;;;;;;-142.75;100.00;76999.44;5068370;28;20020;-68
2021/12/24 16:34:41;;;;;;;13.45;6.53;;;;;;;-142.75;100.00;76999.44;5084392;28;20683;-69
2021/12/24 16:37:07;;;;;;;14.65;7.40;;;;;;;-142.75;100.00;76997.47;5071498;28;20027;-68
2021/12/24 16:39:32;;;;;;;;;;;;;;;-142.75;100.00;76999.44;5085921;28;20059;-68
2021/12/24 16:41:57;;;;;;;23.30;8.40;;;;;;;-142.75;100.00;77007.31;5082166;28;19978;-70
2021/12/24 16:44:23;;;;;;;19.27;7.38;;;;;;;-142.75;100.00;77005.34;5078985;28;20032;-67
2021/12/24 16:46:48;;;;;;;8.48;3.60;;;;;;;-142.75;100.00;77011.25;5065304;28;20108;-68
2021/12/24 16:49:13;;;;;;;5.10;1.80;;;;;;;-142.75;100.00;77015.19;5063883;28;20490;-67
2021/12/24 16:51:39;;;;;;;5.65;1.98;;;;;;;-142.75;100.00;77030.94;5063222;28;21429;-67
2021/12/24 16:54:04;;;;;;;5.30;1.55;;;;;;;-142.75;100.00;77030.94;5063702;28;20027;-67
2021/12/24 16:56:29;;;;;;;4.85;1.85;;;;;;;-142.75;100.00;77023.06;5064935;28;20070;-68
2021/12/24 16:58:55;;;;;;;3.88;1.90;;;;;;;-142.75;100.00;77028.97;5063798;28;20029;-69
2021/12/24 17:01:20;;;;;;;6.63;2.30;;;;;;;-142.75;100.00;77025.03;5063879;28;20503;-70
2021/12/24 17:03:47;;;;;;;3.90;1.70;;;;;;;-142.75;100.00;77025.03;5065064;28;20274;-68
2021/12/24 17:06:12;;;;;;;4.72;2.15;;;;;;;-142.75;100.00;77027.00;5074451;28;20020;-67
2021/12/24 17:08:38;;;;;;;4.78;2.53;;;;;;;-142.75;100.00;77023.06;5073563;28;20029;-68
2021/12/24 17:11:03;;;;;;;7.05;3.05;;;;;;;-142.75;100.00;77034.88;5062589;28;20060;-66
2021/12/24 17:13:28;;;;;;;5.90;3.05;;;;;;;-142.75;100.00;77034.88;5064780;28;20029;-68
2021/12/24 17:15:54;;;;;;;7.22;3.17;;;;;;;-142.75;100.00;77032.91;5064206;28;20020;-69
2021/12/24 17:18:19;;;;;;;7.75;3.45;;;;;;;-142.75;100.00;77034.88;5063542;28;20021;-68
2021/12/24 17:20:44;;;;;;;7.93;3.40;;;;;;;-142.75;100.00;77032.91;5063804;28;20111;-65
2021/12/24 17:23:10;;;;;;;6.93;3.20;;;;;;;-142.75;100.00;77027.00;5084519;28;20032;-65
2021/12/24 17:25:36;;;;;;;8.35;4.18;;;;;;;-142.75;100.00;77034.88;5083426;28;20115;-67
2021/12/24 17:28:01;;;;;;;5.72;3.38;;;;;;;-142.75;100.00;77038.81;5056093;28;20054;-66
2021/12/24 17:30:26;;;;;;;5.82;3.88;;;;;;;-142.75;100.00;77034.88;5049716;28;20056;-66
2021/12/24 17:32:52;;;;;;;9.25;3.50;;;;;;;-142.75;100.00;77032.91;5055550;28;20032;-67
2021/12/24 17:35:18;;;;;;;5.95;3.58;;;;;;;-142.75;100.00;77038.81;5071346;28;20020;-68
2021/12/24 17:37:43;;;;;;;7.22;4.90;;;;;;;-142.75;100.00;77034.88;5059500;28;20036;-67
2021/12/24 17:40:11;;;;;;;11.05;4.78;;;;;;;-142.75;100.00;77028.97;5050441;28;20078;-67
2021/12/24 17:42:37;;;;;;;6.95;4.53;;;;;;;-142.75;100.00;77028.97;5048248;28;20047;-67
2021/12/24 17:45:05;;;;;;;8.60;4.95;;;;;;;-142.75;100.00;77027.00;5050633;28;20021;-68
2021/12/24 17:47:31;;;;;;;7.60;3.85;;;;;;;-142.75;100.00;77050.63;5049981;28;20451;-68
2021/12/24 17:49:56;;;;;;;5.88;3.60;;;;;;;-142.75;100.00;77072.28;5050090;28;20045;-70
2021/12/24 17:52:21;;;;;;;5.35;3.83;;;;;;;-142.75;100.00;77076.22;5050628;28;20066;-67
2021/12/24 17:54:47;;;;;;;4.85;3.33;;;;;;;-142.75;100.00;77082.13;5067669;28;20028;-67
2021/12/24 17:57:12;;;;;;;4.07;2.90;;;;;;;-142.75;100.00;77086.06;5070348;28;20513;-67
2021/12/24 17:59:38;;;;;;;5.55;3.97;;;;;;;-142.75;100.00;77082.13;5063759;28;20406;-67
2021/12/24 18:02:04;;;;;;;7.07;4.05;;;;;;;-142.75;100.00;77099.84;5048553;28;20112;-68
2021/12/24 18:04:31;;;;;;;6.82;4.05;;;;;;;-142.75;100.00;77121.50;5050495;28;20028;-65
2021/12/24 18:06:57;;;;;;;5.90;4.30;;;;;;;-142.75;100.00;77125.44;5051901;28;20434;-68
2021/12/24 18:09:24;;;;;;;5.90;4.68;;;;;;;-142.75;100.00;77119.53;5048716;28;20517;-66
2021/12/24 18:11:50;;;;;;;8.02;4.32;;;;;;;-142.75;100.00;77119.53;5058416;28;20107;-67
2021/12/24 18:14:15;;;;;;;10.77;4.72;;;;;;;-142.75;100.00;77123.47;5070331;28;20116;-66
2021/12/24 18:16:40;;;;;;;5.88;4.60;;;;;;;-142.75;100.00;77121.50;5061516;28;20116;-66
2021/12/24 18:19:06;;;;;;;6.15;4.88;;;;;;;-142.75;100.00;77119.53;5070265;28;20036;-66
2021/12/24 18:21:33;;;;;;;6.60;5.10;;;;;;;-142.75;100.00;77137.25;5062416;28;20033;-66
2021/12/24 18:24:03;;;;;;;7.22;5.30;;;;;;;-142.75;100.00;77129.38;5063952;28;20401;-65
2021/12/24 18:26:28;;;;;;;6.15;5.00;;;;;;;-142.75;100.00;77127.41;5049977;28;20025;-66
2021/12/24 18:28:58;;;;;;;8.73;5.95;;;;;;;-142.75;100.00;77121.50;5062819;28;20044;-66
2021/12/24 18:31:25;;;;;;;9.25;6.78;;;;;;;-142.75;100.00;77127.41;5048558;28;20025;-67
2021/12/24 18:33:50;;;;;;;9.50;6.47;;;;;;;-142.75;100.00;77121.50;5049309;28;20032;-66
2021/12/24 18:36:16;;;;;;;6.90;5.47;;;;;;;-142.75;100.00;77121.50;5064730;28;20029;-66
2021/12/24 18:38:41;;;;;;;7.50;5.43;;;;;;;-142.75;100.00;77113.63;5052028;28;20032;-66
2021/12/24 18:41:06;;;;;;;7.45;5.40;;;;;;;-142.75;100.00;77119.53;5067824;28;20020;-67
2021/12/24 18:43:32;;;;;;;6.93;5.00;;;;;;;-142.75;100.00;77137.25;5069742;28;20360;-68
2021/12/24 18:45:59;;;;;;;8.20;5.28;;;;;;;-142.75;100.00;58249.25;5069532;28;20032;-67
2021/12/24 18:48:24;;;;;;;5.97;4.65;;;;;;;-142.75;100.00;58249.25;5069516;28;20020;-67
2021/12/24 18:50:51;;;;;;;7.53;4.68;;;;;;;-142.75;100.00;58249.25;5053898;28;20070;-67
2021/12/24 18:53:18;;;;;;;6.63;4.70;;;;;;;-142.75;100.00;58249.25;5067830;28;20031;-67
2021/12/24 18:55:43;;;;;;;6.40;5.20;;;;;;;-142.75;100.00;58249.25;5061424;28;20073;-67
2021/12/24 18:58:09;;;;;;;8.75;5.80;;;;;;;-142.75;100.00;58249.25;5069473;28;20025;-67
2021/12/24 19:00:37;;;;;;;8.48;5.57;;;;;;;-142.75;100.00;58249.25;5068427;28;20025;-67
2021/12/24 19:03:04;;;;;;;9.02;6.63;;;;;;;-142.75;100.00;58249.25;5064650;28;20434;-67
2021/12/24 19:05:31;;;;;;;10.88;6.82;;;;;;;-142.75;100.00;58249.25;5049267;28;20016;-67
2021/12/24 19:07:56;;;;;;;;;;;;;;;-142.75;100.00;58249.25;5048500;28;20013;-70
2021/12/24 19:10:22;;;;;;;10.52;6.88;;;;;;;-142.75;100.00;58249.25;5052660;28;19917;-67
2021/12/24 19:12:47;;;;;;;9.02;6.80;;;;;;;-142.75;100.00;58249.25;5048154;28;20016;-67
2021/12/24 19:15:13;;;;;;;10.68;6.40;;;;;;;-142.75;100.00;58249.25;5051445;28;20031;-68
2021/12/24 19:17:39;;;;;;;;;;;;;;;-142.75;100.00;58249.25;5058271;28;20021;-67
2021/12/24 19:20:07;;;;;;;9.63;6.97;;;;;;;-142.75;100.00;58249.25;5068077;28;19966;-67
2021/12/24 19:22:33;;;;;;;10.23;7.07;;;;;;;-142.75;100.00;58249.25;5068620;28;20498;-67
2021/12/24 19:24:58;;;;;;;8.88;6.97;;;;;;;-142.75;100.00;58249.25;5059570;28;20024;-67
2021/12/24 19:27:24;;;;;;;8.15;5.68;;;;;;;-142.75;100.00;58249.25;5057189;28;20032;-67
2021/12/24 19:29:49;;;;;;;10.35;6.43;;;;;;;-142.75;100.00;58249.25;5052904;28;20025;-66
2021/12/24 19:32:15;;;;;;;9.32;6.53;;;;;;;-142.75;100.00;58249.25;5052078;28;20025;-67
2021/12/24 19:34:40;;;;;;;10.82;6.82;;;;;;;-142.75;100.00;58249.25;5051653;28;20025;-67
2021/12/24 19:37:06;;;;;;;10.35;6.57;;;;;;;-142.75;100.00;58249.25;5058833;28;20474;-69
2021/12/24 19:39:31;;;;;;;10.25;6.60;;;;;;;-142.75;100.00;58249.25;5050176;28;20132;-67
2021/12/24 19:41:57;;;;;;;8.95;6.38;;;;;;;-142.75;100.00;58249.25;5056788;28;20033;-66
2021/12/24 19:44:22;;;;;;;9.27;6.53;;;;;;;-142.75;100.00;58249.25;5063275;28;20020;-67
2021/12/24 19:46:48;;;;;;;10.23;6.70;;;;;;;-142.75;100.00;58249.25;5051249;28;20532;-66
2021/12/24 19:49:13;;;;;;;9.25;6.85;;;;;;;-142.75;100.00;58249.25;5048556;28;20135;-66
2021/12/24 19:51:39;;;;;;;9.43;7.05;;;;;;;-142.75;100.00;58249.25;5047822;28;20426;-66
2021/12/24 19:54:07;;;;;;;10.85;6.82;;;;;;;-142.75;100.00;58249.25;5047094;28;20106;-66
2021/12/24 19:56:32;;;;;;;11.48;6.43;;;;;;;-142.75;100.00;58249.25;5048474;28;20119;-66
2021/12/24 19:58:58;;;;;;;8.82;5.93;;;;;;;-142.75;100.00;58249.25;5048234;28;20582;-66
2021/12/24 20:01:23;;;;;;;9.00;6.63;;;;;;;-142.75;100.00;58249.25;5047725;28;20044;-66
2021/12/24 20:03:49;;;;;;;9.68;6.45;;;;;;;-142.75;100.00;58249.25;5064010;28;20024;-66
2021/12/24 20:06:14;;;;;;;7.70;6.15;;;;;;;-142.75;100.00;58249.25;5068283;28;20398;-67
2021/12/24 20:08:39;;;;;;;11.45;7.30;;;;;;;-142.75;100.00;58249.25;5054262;28;20040;-68
2021/12/24 20:11:06;;;;;;;8.38;6.22;;;;;;;-142.75;100.00;58249.25;5049357;28;20127;-66
2021/12/24 20:13:31;;;;;;;9.93;6.15;;;;;;;-142.75;100.00;58249.25;5054635;28;20502;-66
2021/12/24 20:15:57;;;;;;;10.20;6.88;;;;;;;-142.75;100.00;58249.25;5060502;28;20045;-68
2021/12/24 20:18:22;;;;;;;9.95;6.70;;;;;;;-142.75;100.00;58249.25;5046590;28;20025;-67
2021/12/24 20:20:48;;;;;;;10.43;6.47;;;;;;;-142.75;100.00;58249.25;5052475;28;20032;-67
2021/12/24 20:23:13;;;;;;;10.05;6.15;;;;;;;-142.75;100.00;58249.25;5051780;28;20025;-68
2021/12/24 20:25:39;;;;;;;8.25;6.15;;;;;;;-142.75;100.00;58249.25;5063754;28;20025;-66
2021/12/24 20:28:07;;;;;;;9.85;6.82;;;;;;;-142.75;100.00;58249.25;5068237;28;20052;-67
2021/12/24 20:30:33;;;;;;;10.70;7.00;;;;;;;-142.75;100.00;58249.25;5065398;28;20409;-67
2021/12/24 20:32:58;;;;;;;;;;;;;;;-142.75;100.00;58249.25;5048555;28;20020;-67
2021/12/24 20:35:24;;;;;;;10.18;6.45;;;;;;;-142.75;100.00;58249.25;5047991;28;19920;-67
2021/12/24 20:37:50;;;;;;;9.18;6.78;;;;;;;-142.75;100.00;58249.25;5047111;28;20113;-67
2021/12/24 20:40:16;;;;;;;;;;;;;;;-142.75;100.00;58249.25;5051978;28;20052;-67
2021/12/24 20:42:42;;;;;;;9.77;6.45;;;;;;;-142.75;100.00;58249.25;5047859;28;19948;-67
2021/12/24 20:45:09;;;;;;;10.15;6.60;;;;;;;-142.75;100.00;58249.25;5047954;28;20076;-67
2021/12/24 20:47:35;;;;;;;9.57;6.72;;;;;;;-142.75;100.00;58249.25;5068121;28;20017;-68
2021/12/24 20:50:00;;;;;;;9.70;6.35;;;;;;;-142.75;100.00;58249.25;5067115;28;20067;-67
2021/12/24 20:52:26;;;;;;;12.13;7.15;;;;;;;-142.75;100.00;58249.25;5054227;28;20024;-66
2021/12/24 20:54:53;;;;;;;8.77;6.88;;;;;;;-142.75;100.00;58249.25;5060792;28;20028;-67
2021/12/24 20:57:18;;;;;;;10.10;7.35;;;;;;;-142.75;100.00;58249.25;5068010;28;20017;-67
2021/12/24 20:59:44;;;;;;;10.27;7.15;;;;;;;-142.75;100.00;58249.25;5050016;28;20033;-69
2021/12/24 21:02:09;;;;;;;11.05;7.38;;;;;;;-142.75;100.00;58249.25;5048470;28;20406;-68
2021/12/24 21:04:35;;;;;;;10.45;7.15;;;;;;;-142.75;100.00;58249.25;5051577;28;20400;-68
2021/12/24 21:07:01;;;;;;;12.80;8.43;;;;;;;-142.75;100.00;58249.25;5057069;28;20732;-68
2021/12/24 21:09:26;;;;;;;;;;;;;;;-142.75;100.00;58249.25;5052047;28;20033;-68
2021/12/24 21:11:52;;;;;;;11.45;8.10;;;;;;;-142.75;100.00;58249.25;5050672;28;19916;-68
2021/12/24 21:14:17;;;;;;;;;;;;;;;-142.75;100.00;58249.25;5051756;28;20028;-67
2021/12/24 21:16:44;;;;;;;9.90;7.35;;;;;;;-142.75;100.00;58249.25;5049701;28;20014;-69
2021/12/24 21:19:11;;;;;;;11.88;7.95;;;;;;;-142.75;100.00;58249.25;5064697;28;20048;-70
2021/12/24 21:21:36;;;;;;;13.70;8.23;;;;;;;-142.75;100.00;58249.25;5070664;28;20419;-69
2021/12/24 21:24:04;;;;;;;11.63;8.63;;;;;;;-142.75;100.00;58249.25;5071170;28;20032;-69
2021/12/24 21:26:30;;;;;;;13.93;8.27;;;;;;;-142.75;100.00;58249.25;5071243;28;20024;-69
2021/12/24 21:28:56;;;;;;;12.70;8.70;;;;;;;-142.75;100.00;58249.25;5064192;28;20029;-68
2021/12/24 21:31:21;;;;;;;;;;;;;;;-142.75;100.00;58249.25;5070526;28;20063;-68
2021/12/24 21:33:47;;;;;;;14.93;10.13;;;;;;;-142.75;100.00;58249.25;5069902;28;19951;-67
2021/12/24 21:36:12;;;;;;;13.43;9.45;;;;;;;-142.75;100.00;58249.25;5070459;28;20016;-69
2021/12/24 21:38:38;;;;;;;18.20;12.20;;;;;;;-142.75;100.00;58249.25;5049616;28;20521;-68
2021/12/24 21:41:06;;;;;;;18.37;10.97;;;;;;;-142.75;100.00;58249.25;5056019;28;20020;-69
2021/12/24 21:43:32;;;;;;;16.13;10.67;;;;;;;-142.75;100.00;58249.25;5070633;28;20278;-69
2021/12/24 21:46:00;;;;;;;18.38;10.18;;;;;;;-142.75;100.00;58249.25;5059029;28;20019;-68
2021/12/24 21:48:25;;;;;;;19.20;14.20;;;;;;;-142.75;100.00;58249.25;5057924;28;20082;-70
2021/12/24 21:50:51;;;;;;;19.90;15.00;;;;;;;-142.75;100.00;58249.25;5061680;28;20017;-68
2021/12/24 21:53:19;;;;;;;16.95;12.55;;;;;;;-142.75;100.00;58249.25;5051007;28;20032;-69
2021/12/24 21:55:45;;;;;;;16.03;12.20;;;;;;;-142.75;100.00;58249.25;5051519;28;20025;-68
2021/12/24 21:58:13;;;;;;;18.23;11.30;;;;;;;-142.75;100.00;58249.25;5070582;28;20028;-68
2021/12/24 22:00:40;;;;;;;19.50;14.10;;;;;;;-142.75;100.00;58249.25;5054776;28;20060;-68
2021/12/24 22:03:32;;;;;;;15.87;10.77;;;;;;;-142.75;100.00;58249.25;5057457;28;20439;-68
2021/12/24 22:06:09;;;;;;;12.97;9.27;;;;;;;-142.75;100.00;58249.25;5061477;28;20025;-71
2021/12/24 22:08:41;;;;;;;13.13;9.10;;;;;;;-142.75;100.00;58249.25;5049125;28;20036;-68
2021/12/24 22:11:11;;;;;;;14.23;9.85;;;;;;;-142.75;100.00;58249.25;5049492;28;20475;-68
2021/12/24 22:13:38;;;;;;;12.27;9.43;;;;;;;-142.75;100.00;58249.25;5050124;28;20041;-68
2021/12/24 22:16:05;;;;;;;15.95;10.15;;;;;;;-142.75;100.00;58249.25;5053723;28;20052;-68
2021/12/24 22:18:35;;;;;;;13.07;9.33;;;;;;;-142.75;100.00;58249.25;5066019;28;20174;-68
2021/12/24 22:21:02;;;;;;;13.82;9.25;;;;;;;-142.75;100.00;58249.25;5049489;28;20463;-66
2021/12/24 22:23:29;;;;;;;16.00;9.13;;;;;;;-142.75;100.00;58249.25;5058580;28;20024;-67
2021/12/24 22:25:55;;;;;;;14.37;9.17;;;;;;;-142.75;100.00;58249.25;5050181;28;20044;-67
2021/12/24 22:28:20;;;;;;;14.35;9.55;;;;;;;-142.75;100.00;58249.25;5049840;28;20021;-68
2021/12/24 22:30:46;;;;;;;15.40;10.45;;;;;;;-142.75;100.00;58249.25;5053938;28;20382;-68
2021/12/24 22:33:11;;;;;;;13.05;10.18;;;;;;;-142.75;100.00;58249.25;5049657;28;20573;-66
2021/12/24 22:35:36;;;;;;;12.55;9.00;;;;;;;-142.75;100.00;58249.25;5065132;28;20112;-70
2021/12/24 22:38:02;;;;;;;17.33;10.40;;;;;;;-142.75;100.00;58249.25;5069726;28;20021;-67
2021/12/24 22:40:28;;;;;;;16.63;10.95;;;;;;;-142.75;100.00;58249.25;5068031;28;20490;-67
2021/12/24 22:42:53;;;;;;;15.10;10.80;;;;;;;-142.75;100.00;58249.25;5051662;28;20017;-68
2021/12/24 22:45:19;;;;;;;17.27;10.93;;;;;;;-142.75;100.00;58249.25;5064538;28;20131;-67
2021/12/24 22:47:45;;;;;;;14.23;10.35;;;;;;;-142.75;100.00;58249.25;5052283;28;20546;-67
2021/12/24 22:50:12;;;;;;;17.23;11.17;;;;;;;-142.75;100.00;58249.25;5052353;28;20027;-67
2021/12/24 22:52:42;;;;;;;16.30;11.13;;;;;;;-142.75;100.00;58249.25;5054768;28;20107;-67
2021/12/24 22:55:22;;;;;;;16.13;10.90;;;;;;;-142.75;100.00;58249.25;5061237;28;20075;-67
2021/12/24 22:57:49;;;;;;;16.90;11.60;;;;;;;-142.75;100.00;58249.25;5066705;22;20012;-70
2021/12/24 23:00:24;;;;;;;15.93;11.75;;;;;;;-142.75;100.00;58249.25;5029222;28;20029;-67
2021/12/24 23:02:49;;;;;;;17.70;11.95;;;;;;;-142.75;100.00;58249.25;5030195;28;20546;-68
2021/12/24 23:05:14;;;;;;;19.83;10.63;;;;;;;-142.75;100.00;58249.25;5011197;28;20031;-67
2021/12/24 23:07:40;;;;;;;17.00;11.90;;;;;;;-142.75;100.00;58249.25;5030288;28;20112;-67
2021/12/24 23:10:07;;;;;;;15.68;11.10;;;;;;;-142.75;100.00;58249.25;5011622;28;20105;-67
2021/12/24 23:12:33;;;;;;;18.43;11.60;;;;;;;-142.75;100.00;58249.25;5030245;28;20524;-67
2021/12/24 23:14:58;;;;;;;17.67;11.73;;;;;;;-142.75;100.00;58249.25;5029974;28;20009;-67
2021/12/24 23:17:27;;;;;;;16.90;11.73;;;;;;;-142.75;100.00;58249.25;5029929;28;20459;-67
2021/12/24 23:19:54;;;;;;;19.67;12.65;;;;;;;-142.75;100.00;58249.25;5029370;28;20326;-68
2021/12/24 23:22:20;;;;;;;19.23;12.27;;;;;;;-142.75;100.00;58249.25;5030133;28;20044;-68
2021/12/24 23:24:45;;;;;;;17.95;12.40;;;;;;;-142.75;100.00;58249.25;5029754;28;20029;-68
2021/12/24 23:27:11;;;;;;;16.98;12.13;;;;;;;-142.75;100.00;58249.25;5012126;28;20018;-68
2021/12/24 23:29:36;;;;;;;20.02;13.57;;;;;;;-142.75;100.00;58249.25;5027909;28;20100;-68
2021/12/24 23:32:02;;;;;;;19.27;12.32;;;;;;;-142.75;100.00;58249.25;5029169;28;20057;-68
2021/12/24 23:34:27;;;;;;;20.92;13.82;;;;;;;-142.75;100.00;58249.25;5037335;28;20024;-68
2021/12/24 23:36:52;;;;;;;19.45;12.60;;;;;;;-142.75;100.00;58249.25;5049651;28;20120;-67
2021/12/24 23:39:17;;;;;;;21.40;13.93;;;;;;;-142.75;100.00;58249.25;5049608;28;20030;-67
2021/12/24 23:41:43;;;;;;;18.30;13.20;;;;;;;-142.75;100.00;58249.25;5048943;28;20295;-67
2021/12/24 23:44:12;;;;;;;23.90;16.20;;;;;;;-142.75;100.00;58249.25;5049433;28;20413;-67
2021/12/24 23:46:50;;;;;;;21.47;14.27;;;;;;;-142.75;100.00;58249.25;5050239;28;20013;-66
2021/12/24 23:49:16;;;;;;;20.07;13.23;;;;;;;-142.75;100.00;58249.25;5049679;28;20433;-67
2021/12/24 23:51:41;;;;;;;16.73;12.18;;;;;;;-142.75;100.00;58249.25;5048743;28;20037;-67
2021/12/24 23:54:08;;;;;;;20.45;13.52;;;;;;;-142.75;100.00;58249.25;5031739;28;20017;-67
2021/12/24 23:56:34;;;;;;;18.73;13.40;;;;;;;-142.75;100.00;58249.25;5049418;28;20394;-67
2021/12/24 23:59:01;;;;;;;19.33;13.50;;;;;;;-142.75;100.00;58249.25;5049262;28;20096;-67
